Wyatt, Louisiana
Current Conditions -  °F | °C
As of 7:15 PM on Tuesday 27 Jan 2015 (Local Time) from KRSN Reporting Station
Clear Clear  
Wind Chill: 52°   Ceiling: Unl
Heat Index: 52°   Visibility: 10mi
Dew Point: 41°   Wind: 0mph
Humidity: 66%   Direction: NA
Pressure: 30.19"   Gusts: NA
Location:  32.2275°N, 92.6417°W
Report Text: KRSN 280115Z AUTO 00000KT 10SM CLR 11/05 A3019 RMK AO2 T01110049
Loading
Personal Weather Stations






























Interactive Weather Map New forecast layout! Learn more

10-Day Weather Forecast

Advertisements
Track Severe Weather on mobile